Time;durP1;ratioP1;P1;durP2;ratioP2;P2;SDS_P1;SDS_P2;PMS_P1;PMS_P2;Temp;Humidity;BMP_temperature;BMP_pressure;BME280_temperature;BME280_humidity;BME280_pressure;Samples;Min_cycle;Max_cycle;Signal;HPM_P1;HPM_P2
2022/03/30 00:00:23;;;;;;;27.48;6.15;;;13.30;48.50;;;;;;4973488;28;20078;-69
2022/03/30 00:02:49;;;;;;;22.27;6.07;;;13.20;48.70;;;;;;4975571;28;21491;-68
2022/03/30 00:05:15;;;;;;;21.83;6.15;;;13.20;48.60;;;;;;4975801;28;20049;-69
2022/03/30 00:07:40;;;;;;;21.92;5.80;;;13.20;48.50;;;;;;4977171;28;20050;-66
2022/03/30 00:10:07;;;;;;;22.45;5.70;;;13.30;48.60;;;;;;4973920;28;20031;-66
2022/03/30 00:12:34;;;;;;;20.52;6.57;;;13.20;48.60;;;;;;4970434;28;20035;-69
2022/03/30 00:15:00;;;;;;;27.63;6.40;;;13.30;48.90;;;;;;4973468;28;20061;-70
2022/03/30 00:17:26;;;;;;;25.95;5.93;;;13.30;49.00;;;;;;4972072;28;20121;-67
2022/03/30 00:19:52;;;;;;;22.08;5.72;;;13.30;49.00;;;;;;4972495;28;21246;-69
2022/03/30 00:22:18;;;;;;;27.80;6.18;;;13.30;49.10;;;;;;4973636;28;20541;-68
2022/03/30 00:24:44;;;;;;;18.05;5.57;;;13.30;49.00;;;;;;4971679;28;20051;-68
2022/03/30 00:27:11;;;;;;;26.90;5.63;;;13.30;49.10;;;;;;4958858;28;20572;-67
2022/03/30 00:29:36;;;;;;;20.05;5.50;;;13.30;49.10;;;;;;4965448;28;20045;-68
2022/03/30 00:32:03;;;;;;;20.08;5.43;;;13.30;49.00;;;;;;4973111;28;20026;-69
2022/03/30 00:34:28;;;;;;;26.42;6.20;;;13.30;49.30;;;;;;4956827;28;20038;-67
2022/03/30 00:36:54;;;;;;;23.65;5.50;;;13.30;49.40;;;;;;4962141;28;20274;-67
2022/03/30 00:39:20;;;;;;;20.60;5.78;;;13.30;49.40;;;;;;4974738;28;20465;-66
2022/03/30 00:41:45;;;;;;;24.13;5.85;;;13.20;49.30;;;;;;4961349;28;20030;-67
2022/03/30 00:44:13;;;;;;;22.50;5.43;;;13.20;49.50;;;;;;4970015;28;20506;-67
2022/03/30 00:46:42;;;;;;;23.48;5.60;;;13.20;49.60;;;;;;4972255;28;20031;-69
2022/03/30 00:49:07;;;;;;;19.80;5.43;;;13.10;49.60;;;;;;4968861;28;20105;-67
2022/03/30 00:51:33;;;;;;;23.58;6.03;;;13.10;49.70;;;;;;4962958;28;20501;-67
2022/03/30 00:53:58;;;;;;;23.80;6.05;;;13.10;49.70;;;;;;4958823;28;20635;-67
2022/03/30 00:56:27;;;;;;;19.90;5.22;;;13.10;49.70;;;;;;4950261;28;20039;-68
2022/03/30 00:58:53;;;;;;;21.52;6.18;;;13.10;49.70;;;;;;4975890;28;20117;-67
2022/03/30 01:01:20;;;;;;;20.70;5.60;;;13.10;50.20;;;;;;4974666;28;20643;-67
2022/03/30 01:03:46;;;;;;;19.23;5.95;;;13.00;49.70;;;;;;4967596;28;20494;-67
2022/03/30 01:06:12;;;;;;;22.70;6.15;;;13.00;50.50;;;;;;4951277;28;20134;-67
2022/03/30 01:08:38;;;;;;;24.30;6.13;;;13.00;50.00;;;;;;4968371;28;20130;-69
2022/03/30 01:11:03;;;;;;;24.15;6.10;;;13.00;50.10;;;;;;4963874;28;20121;-70
2022/03/30 01:13:29;;;;;;;21.27;5.80;;;13.00;50.10;;;;;;4960330;28;20040;-67
2022/03/30 01:15:55;;;;;;;24.00;5.85;;;13.00;50.10;;;;;;4963927;28;20506;-68
2022/03/30 01:18:21;;;;;;;23.38;6.00;;;13.00;50.50;;;;;;4956842;28;20043;-67
2022/03/30 01:20:50;;;;;;;23.15;5.95;;;12.90;50.50;;;;;;4976939;28;20031;-68
2022/03/30 01:23:17;;;;;;;19.55;5.82;;;12.90;50.80;;;;;;4972390;28;20113;-67
2022/03/30 01:25:43;;;;;;;25.58;5.28;;;12.90;50.60;;;;;;4961239;28;20560;-67
2022/03/30 01:28:09;;;;;;;22.45;5.55;;;12.80;50.50;;;;;;4974218;28;20034;-66
2022/03/30 01:33:20;;;;;;;25.40;5.93;;;12.90;50.80;;;;;;4961177;28;20536;-68
2022/03/30 01:35:46;;;;;;;31.50;6.28;;;12.90;50.60;;;;;;4972637;28;20050;-68
2022/03/30 01:38:11;;;;;;;31.55;5.57;;;12.80;51.50;;;;;;4980930;28;20509;-67
2022/03/30 01:40:38;;;;;;;23.67;5.32;;;12.80;50.70;;;;;;4962024;28;20042;-68
2022/03/30 01:43:04;;;;;;;25.15;5.95;;;12.70;50.50;;;;;;4966350;28;20041;-69
2022/03/30 01:45:30;;;;;;;22.20;5.63;;;12.70;50.40;;;;;;4981154;28;20062;-69
2022/03/30 01:47:58;;;;;;;22.38;5.25;;;12.70;50.60;;;;;;4979643;28;20109;-68
2022/03/30 01:50:26;;;;;;;24.23;5.40;;;12.60;50.70;;;;;;4980021;28;21715;-69
2022/03/30 01:52:52;;;;;;;20.83;5.20;;;12.60;50.80;;;;;;4980818;28;20030;-67
2022/03/30 01:55:19;;;;;;;27.35;5.72;;;12.60;50.80;;;;;;4972286;28;20291;-69
2022/03/30 01:57:45;;;;;;;31.35;6.07;;;12.60;50.70;;;;;;4960098;28;20035;-69
2022/03/30 02:00:12;;;;;;;27.02;6.35;;;12.60;50.50;;;;;;4973786;28;20042;-68
2022/03/30 02:02:39;;;;;;;20.30;5.40;;;12.60;50.40;;;;;;4979277;28;20124;-67
2022/03/30 02:05:08;;;;;;;27.30;5.57;;;12.60;50.30;;;;;;4979541;28;20077;-70
2022/03/30 02:07:37;;;;;;;25.38;5.63;;;12.60;50.30;;;;;;4977938;28;20046;-68
2022/03/30 02:10:05;;;;;;;27.25;4.88;;;12.60;50.20;;;;;;4979162;28;20483;-70
2022/03/30 02:12:30;;;;;;;28.33;5.45;;;12.60;50.30;;;;;;4976238;28;20039;-68
2022/03/30 02:14:57;;;;;;;22.63;5.03;;;12.60;50.00;;;;;;4983403;28;20601;-68
2022/03/30 02:17:24;;;;;;;28.67;5.53;;;12.60;49.80;;;;;;4977947;28;20035;-69
2022/03/30 02:19:50;;;;;;;28.30;5.50;;;12.60;49.80;;;;;;4973763;28;20403;-67
2022/03/30 02:22:15;;;;;;;29.70;5.57;;;12.60;50.00;;;;;;4974814;28;20343;-67
2022/03/30 02:24:41;;;;;;;20.83;4.97;;;12.60;50.00;;;;;;4978251;28;20041;-69
2022/03/30 02:27:07;;;;;;;23.13;5.32;;;12.70;50.20;;;;;;4967104;28;20679;-67
2022/03/30 02:29:34;;;;;;;20.70;5.38;;;12.70;50.20;;;;;;4956021;28;20035;-67
2022/03/30 02:32:00;;;;;;;29.23;6.10;;;12.70;50.00;;;;;;4970242;28;20034;-67
2022/03/30 02:34:27;;;;;;;24.45;5.53;;;12.70;49.90;;;;;;4977775;28;20070;-67
2022/03/30 02:36:52;;;;;;;22.50;4.82;;;12.70;49.90;;;;;;4961097;28;20114;-67
2022/03/30 02:39:19;;;;;;;26.70;5.65;;;12.70;49.90;;;;;;4975626;28;20042;-67
2022/03/30 02:41:45;;;;;;;30.73;5.68;;;12.70;49.80;;;;;;4964342;28;20596;-67
2022/03/30 02:44:12;;;;;;;19.00;5.00;;;12.70;49.70;;;;;;4953516;28;20059;-68
2022/03/30 02:46:38;;;;;;;27.92;5.10;;;12.70;49.40;;;;;;4973924;28;20189;-69
2022/03/30 02:49:04;;;;;;;27.50;5.40;;;12.80;49.20;;;;;;4974587;28;20035;-67
2022/03/30 02:51:31;;;;;;;28.13;5.10;;;12.80;49.10;;;;;;4968238;28;20038;-71
2022/03/30 02:53:56;;;;;;;24.98;4.68;;;12.90;49.00;;;;;;4977693;28;20088;-69
2022/03/30 02:56:22;;;;;;;20.33;5.10;;;12.90;49.00;;;;;;4977283;28;20114;-68
2022/03/30 02:58:48;;;;;;;33.78;6.55;;;13.00;48.90;;;;;;4958519;28;20062;-68
2022/03/30 03:01:14;;;;;;;25.15;5.43;;;13.00;48.80;;;;;;4963088;28;20061;-68
2022/03/30 03:03:40;;;;;;;23.33;5.35;;;13.00;48.70;;;;;;4973815;28;20545;-68
2022/03/30 03:06:06;;;;;;;28.00;5.57;;;13.10;48.60;;;;;;4962458;28;20217;-68
2022/03/30 03:08:32;;;;;;;24.77;5.75;;;13.10;48.50;;;;;;4955924;28;20031;-67
2022/03/30 03:10:57;;;;;;;24.45;5.35;;;13.10;48.50;;;;;;4970096;28;20491;-68
2022/03/30 03:13:23;;;;;;;28.50;5.13;;;13.10;48.50;;;;;;4964610;28;20034;-69
2022/03/30 03:15:49;;;;;;;22.08;5.82;;;13.20;48.50;;;;;;4961085;28;20031;-66
2022/03/30 03:18:15;;;;;;;25.60;5.20;;;13.20;48.50;;;;;;4969017;28;20047;-69
2022/03/30 03:20:42;;;;;;;22.67;4.88;;;13.20;48.50;;;;;;4973741;28;20062;-68
2022/03/30 03:23:10;;;;;;;27.75;5.95;;;13.20;48.90;;;;;;4963706;28;20379;-66
2022/03/30 03:25:37;;;;;;;28.73;5.22;;;13.20;49.20;;;;;;4964258;28;20042;-65
2022/03/30 03:28:03;;;;;;;25.23;5.20;;;13.30;49.40;;;;;;4954576;28;20509;-67
2022/03/30 03:30:29;;;;;;;17.42;5.20;;;13.30;49.40;;;;;;4971716;28;20039;-68
2022/03/30 03:32:56;;;;;;;25.08;5.75;;;13.30;49.80;;;;;;4967950;28;20122;-67
2022/03/30 03:35:22;;;;;;;24.13;5.75;;;13.30;50.10;;;;;;4961911;28;20030;-68
2022/03/30 03:37:49;;;;;;;27.02;5.35;;;13.30;50.10;;;;;;4963761;28;20130;-67
2022/03/30 03:40:17;;;;;;;21.10;5.18;;;13.30;50.00;;;;;;4971341;28;20046;-69
2022/03/30 03:42:42;;;;;;;18.85;4.95;;;13.30;50.00;;;;;;4957255;28;20048;-68
2022/03/30 03:45:08;;;;;;;24.95;5.78;;;13.30;50.50;;;;;;4968263;28;20038;-69
2022/03/30 03:47:34;;;;;;;28.30;5.40;;;13.30;49.80;;;;;;4962329;28;20074;-67
2022/03/30 03:49:59;;;;;;;14.93;4.63;;;13.30;49.80;;;;;;4975262;28;20045;-67
2022/03/30 03:52:25;;;;;;;27.42;5.63;;;13.30;49.70;;;;;;4987716;28;20041;-67
2022/03/30 03:54:51;;;;;;;27.50;5.30;;;13.30;49.70;;;;;;4975447;28;20410;-68
2022/03/30 03:57:17;;;;;;;29.65;6.60;;;13.30;49.80;;;;;;4973922;28;20041;-67
2022/03/30 03:59:42;;;;;;;27.58;6.97;;;13.30;49.80;;;;;;4974412;28;20034;-69
2022/03/30 04:02:08;;;;;;;22.35;5.32;;;13.30;49.80;;;;;;4958891;28;20132;-69
2022/03/30 04:04:39;;;;;;;23.08;5.45;;;13.20;49.70;;;;;;4953705;28;20727;-69
2022/03/30 04:07:05;;;;;;;25.33;5.35;;;13.20;49.80;;;;;;4951579;28;20067;-67
2022/03/30 04:09:31;;;;;;;25.17;5.35;;;13.20;49.70;;;;;;4964418;28;20138;-69
2022/03/30 04:11:57;;;;;;;27.17;5.15;;;13.30;49.80;;;;;;4975939;28;20121;-67
2022/03/30 04:14:22;;;;;;;32.85;5.72;;;13.30;49.80;;;;;;4962658;28;20394;-69
2022/03/30 04:16:48;;;;;;;24.90;5.57;;;13.30;49.90;;;;;;4960732;28;20039;-68
2022/03/30 04:19:15;;;;;;;26.67;5.57;;;13.30;50.50;;;;;;4978083;28;20038;-68
2022/03/30 04:21:42;;;;;;;21.90;5.72;;;13.30;50.00;;;;;;4967331;28;20118;-68
2022/03/30 04:24:09;;;;;;;27.17;5.28;;;13.30;50.10;;;;;;4958869;28;20035;-69
2022/03/30 04:26:35;;;;;;;19.90;5.35;;;13.30;50.40;;;;;;4971720;28;20037;-69
2022/03/30 04:29:01;;;;;;;21.10;5.00;;;13.30;50.60;;;;;;4958672;28;20601;-67
2022/03/30 04:31:26;;;;;;;23.95;5.53;;;13.20;50.80;;;;;;4951200;28;20126;-68
2022/03/30 04:33:53;;;;;;;23.27;5.10;;;13.30;51.10;;;;;;4959467;28;20166;-66
2022/03/30 04:36:19;;;;;;;25.88;5.53;;;13.30;51.50;;;;;;4950954;28;20817;-68
2022/03/30 04:38:45;;;;;;;26.95;5.30;;;13.30;51.90;;;;;;4970304;28;20060;-68
2022/03/30 04:41:11;;;;;;;31.00;11.25;;;13.30;52.00;;;;;;4976038;28;20035;-66
2022/03/30 04:43:36;;;;;;;26.48;6.22;;;13.30;52.30;;;;;;4966389;28;20494;-66
2022/03/30 04:46:02;;;;;;;21.77;5.88;;;13.20;52.70;;;;;;4969136;28;20120;-66
2022/03/30 04:48:28;;;;;;;27.52;5.70;;;13.20;53.00;;;;;;4976564;28;20188;-65
2022/03/30 04:50:54;;;;;;;21.58;4.80;;;13.20;53.40;;;;;;4957607;28;20125;-66
2022/03/30 04:53:19;;;;;;;22.52;5.43;;;13.10;53.60;;;;;;4965779;28;20042;-67
2022/03/30 04:55:45;;;;;;;25.67;5.10;;;13.10;53.90;;;;;;4978275;28;20497;-68
2022/03/30 04:58:11;;;;;;;27.20;6.20;;;13.10;54.30;;;;;;4964669;28;20050;-66
2022/03/30 05:00:37;;;;;;;26.90;6.10;;;13.00;54.70;;;;;;4962522;28;20499;-66
2022/03/30 05:03:03;;;;;;;28.00;5.80;;;13.00;54.90;;;;;;4980925;28;20048;-66
2022/03/30 05:05:28;;;;;;;22.55;5.85;;;13.00;55.10;;;;;;4972733;28;20031;-66
2022/03/30 05:07:58;;;;;;;28.92;6.00;;;12.90;55.30;;;;;;4972499;28;20038;-65
2022/03/30 05:10:24;;;;;;;26.35;5.63;;;12.90;56.10;;;;;;4964886;28;20790;-69
2022/03/30 05:12:50;;;;;;;22.80;5.38;;;12.90;55.90;;;;;;4974797;28;20067;-66
2022/03/30 05:15:16;;;;;;;18.95;5.75;;;12.90;56.00;;;;;;4959243;28;20398;-67
2022/03/30 05:17:44;;;;;;;23.00;5.05;;;12.90;56.50;;;;;;4970904;28;20035;-66
2022/03/30 05:20:14;;;;;;;23.90;5.38;;;12.80;56.90;;;;;;4981714;28;20169;-66
2022/03/30 05:22:40;;;;;;;21.02;5.13;;;12.80;57.50;;;;;;4959569;28;20130;-65
2022/03/30 05:25:07;;;;;;;23.35;5.35;;;12.80;57.40;;;;;;4967213;28;20054;-67
2022/03/30 05:27:33;;;;;;;22.23;4.88;;;12.80;57.60;;;;;;4979956;28;20038;-66
2022/03/30 05:29:58;;;;;;;19.70;5.30;;;12.80;57.80;;;;;;4969278;28;20054;-66
2022/03/30 05:32:24;;;;;;;22.77;6.03;;;12.70;57.90;;;;;;4961887;28;20038;-65
2022/03/30 05:34:50;;;;;;;20.35;6.88;;;12.70;57.80;;;;;;4981259;28;20285;-65
2022/03/30 05:37:16;;;;;;;21.02;7.70;;;12.70;57.90;;;;;;4974576;28;20126;-65
2022/03/30 05:39:42;;;;;;;22.80;6.32;;;12.70;58.20;;;;;;4962295;28;20035;-66
2022/03/30 05:42:12;;;;;;;26.75;6.65;;;12.70;58.50;;;;;;4975678;28;20038;-65
2022/03/30 05:44:39;;;;;;;22.58;5.97;;;12.70;59.10;;;;;;4978948;28;20091;-66
2022/03/30 05:47:07;;;;;;;26.55;5.60;;;12.60;58.60;;;;;;4964672;28;20857;-66
2022/03/30 05:49:34;;;;;;;21.60;5.90;;;12.60;58.70;;;;;;4978103;28;20395;-65
2022/03/30 05:51:59;;;;;;;23.75;5.60;;;12.60;58.80;;;;;;4976260;28;20387;-65
2022/03/30 05:54:25;;;;;;;21.27;6.03;;;12.60;58.90;;;;;;4964333;28;20058;-66
2022/03/30 05:57:02;;;;;;;16.33;5.75;;;12.60;59.10;;;;;;4962772;28;20039;-66
2022/03/30 05:59:31;;;;;;;27.58;7.97;;;12.50;59.20;;;;;;4979835;28;20625;-65
2022/03/30 06:01:57;;;;;;;28.15;8.32;;;12.50;59.20;;;;;;4966354;28;20043;-65
2022/03/30 06:04:24;;;;;;;30.00;8.10;;;12.40;59.30;;;;;;4959676;28;20054;-65
2022/03/30 06:06:52;;;;;;;29.88;7.32;;;12.40;59.60;;;;;;4977294;28;20054;-66
2022/03/30 06:09:18;;;;;;;27.08;6.53;;;12.40;59.70;;;;;;4973662;28;20123;-66
2022/03/30 06:11:45;;;;;;;22.80;6.25;;;12.40;59.90;;;;;;4968832;28;20077;-64
2022/03/30 06:14:11;;;;;;;24.83;7.18;;;12.30;59.90;;;;;;4979651;28;20672;-65
2022/03/30 06:16:37;;;;;;;26.88;9.52;;;12.30;60.00;;;;;;4979893;28;20125;-65
2022/03/30 06:19:04;;;;;;;25.63;8.82;;;12.30;60.40;;;;;;4979284;28;20046;-67
2022/03/30 06:21:30;;;;;;;28.60;7.72;;;12.30;60.50;;;;;;4971726;28;20081;-66
2022/03/30 06:23:59;;;;;;;27.58;7.90;;;12.30;60.70;;;;;;4960500;28;20034;-65
2022/03/30 06:26:25;;;;;;;29.77;8.18;;;12.20;61.20;;;;;;4977190;28;20076;-65
2022/03/30 06:28:51;;;;;;;32.00;7.90;;;12.20;60.80;;;;;;4975853;28;20030;-65
2022/03/30 06:31:17;;;;;;;27.45;8.80;;;12.20;60.80;;;;;;4968261;28;20034;-66
2022/03/30 06:33:47;;;;;;;32.67;7.88;;;12.20;61.00;;;;;;4968751;28;20502;-65
2022/03/30 06:36:13;;;;;;;30.85;7.25;;;12.20;62.60;;;;;;4957807;28;20186;-65
2022/03/30 06:38:39;;;;;;;24.10;6.05;;;12.10;61.40;;;;;;4973913;28;20030;-66
2022/03/30 06:41:07;;;;;;;23.63;5.93;;;12.10;61.70;;;;;;4973833;28;20027;-65
2022/03/30 06:43:33;;;;;;;29.85;5.95;;;12.10;61.90;;;;;;4961040;28;20038;-66
2022/03/30 06:45:59;;;;;;;20.85;6.18;;;12.10;62.10;;;;;;4971861;28;20031;-65
2022/03/30 06:48:25;;;;;;;26.13;6.13;;;12.00;62.40;;;;;;4977836;28;20038;-65
2022/03/30 06:50:50;;;;;;;21.58;5.97;;;12.00;62.50;;;;;;4959232;28;20027;-66
2022/03/30 06:53:16;;;;;;;27.63;6.05;;;12.00;62.70;;;;;;4967478;28;20027;-67
2022/03/30 06:55:42;;;;;;;30.70;6.55;;;11.90;62.80;;;;;;4976928;28;20035;-66
2022/03/30 06:58:07;;;;;;;25.33;6.50;;;11.90;62.70;;;;;;4965291;28;20047;-64
2022/03/30 07:00:33;;;;;;;24.27;6.32;;;11.90;63.10;;;;;;4960579;28;20049;-66
2022/03/30 07:02:59;;;;;;;25.38;5.72;;;11.90;63.30;;;;;;4978538;28;20714;-66
2022/03/30 07:05:25;;;;;;;24.92;6.10;;;11.90;63.30;;;;;;4971353;28;20030;-66
2022/03/30 07:10:35;;;;;;;25.67;6.15;;;11.80;63.50;;;;;;4958463;28;20130;-65
2022/03/30 07:13:03;;;;;;;27.27;6.72;;;11.80;63.50;;;;;;4963368;28;20683;-67
2022/03/30 07:15:30;;;;;;;25.63;6.88;;;11.80;63.60;;;;;;4978175;28;20030;-65
2022/03/30 07:18:00;;;;;;;31.25;6.65;;;11.80;64.00;;;;;;4978122;28;20591;-65
2022/03/30 07:20:27;;;;;;;26.42;6.25;;;11.80;64.30;;;;;;4978186;28;20045;-65
2022/03/30 07:22:53;;;;;;;26.02;6.03;;;11.80;64.30;;;;;;4958280;28;20043;-64
2022/03/30 07:25:22;;;;;;;28.30;6.88;;;11.90;64.40;;;;;;4966569;28;20605;-62
2022/03/30 07:27:53;;;;;;;28.95;6.50;;;11.90;64.80;;;;;;4976649;28;20084;-65
2022/03/30 07:30:20;;;;;;;27.50;6.07;;;11.90;65.20;;;;;;4962941;28;20034;-65
2022/03/30 07:32:47;;;;;;;27.33;6.65;;;11.90;64.80;;;;;;4960749;28;20043;-65
2022/03/30 07:35:16;;;;;;;25.25;6.10;;;11.90;64.80;;;;;;4978416;28;20406;-66
2022/03/30 07:37:43;;;;;;;21.75;6.30;;;11.90;65.00;;;;;;4967095;28;20046;-65
2022/03/30 07:40:12;;;;;;;32.58;6.70;;;12.00;65.00;;;;;;4958888;28;20716;-66
2022/03/30 07:42:38;;;;;;;20.85;6.20;;;11.90;65.10;;;;;;4973656;28;20038;-66
2022/03/30 07:45:05;;;;;;;26.17;6.45;;;12.00;65.30;;;;;;4976920;28;20155;-65
2022/03/30 07:47:32;;;;;;;25.83;6.57;;;11.90;65.70;;;;;;4975731;28;20042;-66
2022/03/30 07:49:59;;;;;;;21.77;6.53;;;11.90;65.80;;;;;;4966777;28;20039;-65
2022/03/30 07:52:24;;;;;;;22.67;6.38;;;12.00;66.00;;;;;;4959256;28;20584;-66
2022/03/30 07:54:52;;;;;;;25.45;6.65;;;11.90;66.30;;;;;;4976871;28;20031;-65
2022/03/30 07:57:26;;;;;;;25.95;8.15;;;11.90;66.40;;;;;;4971260;28;20045;-65
2022/03/30 07:59:56;;;;;;;24.95;6.32;;;12.00;66.40;;;;;;4959610;28;20755;-66
2022/03/30 08:02:22;;;;;;;29.52;6.65;;;12.00;67.00;;;;;;4972184;28;20128;-66
2022/03/30 08:04:48;;;;;;;22.02;5.97;;;11.90;66.90;;;;;;4962734;28;20571;-65
2022/03/30 08:07:14;;;;;;;21.95;5.80;;;11.90;66.80;;;;;;4980469;28;20121;-66
2022/03/30 08:09:40;;;;;;;27.00;5.90;;;11.90;66.80;;;;;;4969872;28;20324;-65
2022/03/30 08:12:07;;;;;;;24.80;5.65;;;11.90;67.00;;;;;;4972445;28;20394;-66
2022/03/30 08:14:33;;;;;;;26.35;5.95;;;11.90;67.30;;;;;;4976756;28;20035;-66
2022/03/30 08:16:59;;;;;;;21.38;5.82;;;11.90;67.10;;;;;;4977813;28;20367;-66
2022/03/30 08:19:24;;;;;;;27.75;6.07;;;11.90;67.20;;;;;;4978861;28;20401;-66
2022/03/30 08:24:35;;;;;;;32.55;5.60;;;11.90;67.60;;;;;;4976826;28;20037;-67
2022/03/30 08:27:00;;;;;;;21.75;4.95;;;11.90;67.50;;;;;;4978110;28;20729;-65
2022/03/30 08:29:26;;;;;;;28.55;5.88;;;11.90;67.80;;;;;;4971535;28;20038;-66
2022/03/30 08:31:52;;;;;;;24.48;5.80;;;11.90;67.90;;;;;;4959526;28;20391;-66
2022/03/30 08:34:19;;;;;;;26.00;5.50;;;11.90;68.10;;;;;;4972364;28;20089;-66
2022/03/30 08:36:45;;;;;;;23.17;5.75;;;11.90;68.30;;;;;;4974665;28;20045;-66
2022/03/30 08:39:11;;;;;;;23.25;6.18;;;11.90;68.40;;;;;;4959287;28;20509;-66
2022/03/30 08:41:42;;;;;;;26.40;5.97;;;11.90;68.60;;;;;;4968381;28;20031;-66
2022/03/30 08:44:08;;;;;;;23.77;5.65;;;12.00;69.20;;;;;;4978249;28;20525;-66
2022/03/30 08:46:34;;;;;;;25.42;6.05;;;12.00;69.50;;;;;;4960898;28;21225;-66
2022/03/30 08:48:59;;;;;;;26.35;6.45;;;12.00;68.80;;;;;;4974748;28;20097;-66
2022/03/30 08:51:26;;;;;;;20.05;6.05;;;12.10;69.10;;;;;;4959414;28;20042;-67
2022/03/30 08:53:51;;;;;;;18.70;5.53;;;12.00;69.20;;;;;;4967632;28;20668;-66
2022/03/30 08:56:17;;;;;;;21.42;5.65;;;12.10;69.40;;;;;;4977350;28;20121;-66
2022/03/30 08:58:43;;;;;;;19.42;5.90;;;12.10;69.40;;;;;;4977864;28;20053;-66
2022/03/30 09:01:14;;;;;;;21.50;6.30;;;12.10;69.80;;;;;;4972230;28;20035;-66
2022/03/30 09:03:56;;;;;;;21.92;6.70;;;12.10;70.40;;;;;;4969764;28;20105;-67
2022/03/30 09:06:42;;;;;;;21.33;6.20;;;12.20;71.10;;;;;;4962491;28;20402;-66
2022/03/30 09:09:09;;;;;;;23.27;6.40;;;12.20;70.60;;;;;;4971951;28;20039;-66
2022/03/30 09:11:45;;;;;;;18.08;6.00;;;12.20;69.60;;;;;;4966952;28;20502;-66
2022/03/30 09:14:12;;;;;;;17.90;6.20;;;12.20;70.60;;;;;;4979155;28;20096;-65
2022/03/30 09:16:44;;;;;;;17.38;6.20;;;12.20;69.60;;;;;;4978834;28;20082;-66
2022/03/30 09:19:13;;;;;;;18.25;6.45;;;12.20;70.50;;;;;;4979450;28;20081;-66
2022/03/30 09:21:44;;;;;;;17.77;6.15;;;12.20;70.00;;;;;;4980105;28;20065;-66
2022/03/30 09:24:10;;;;;;;24.40;6.57;;;12.20;70.60;;;;;;4978521;28;20027;-65
2022/03/30 09:26:36;;;;;;;21.38;5.82;;;12.20;70.00;;;;;;4980036;28;20391;-66
2022/03/30 09:29:04;;;;;;;20.02;5.97;;;12.10;69.90;;;;;;4979013;28;20134;-66
2022/03/30 09:31:31;;;;;;;16.10;5.43;;;12.10;69.70;;;;;;4977043;28;20146;-66
2022/03/30 09:34:05;;;;;;;18.58;6.30;;;12.10;69.70;;;;;;4976983;28;20031;-66
2022/03/30 09:36:32;;;;;;;20.17;7.57;;;12.10;70.70;;;;;;4975360;28;20037;-65
2022/03/30 09:38:58;;;;;;;37.83;15.27;;;12.10;70.00;;;;;;4975705;28;20442;-66
2022/03/30 09:41:24;;;;;;;23.73;8.00;;;12.10;70.20;;;;;;4976047;28;20154;-65
2022/03/30 09:44:03;;;;;;;17.45;6.47;;;12.10;70.20;;;;;;4977518;28;20038;-65
2022/03/30 09:46:28;;;;;;;21.00;6.43;;;12.10;71.10;;;;;;4976769;28;20035;-66
2022/03/30 09:48:54;;;;;;;24.00;6.55;;;12.20;70.20;;;;;;4979225;28;20258;-66
2022/03/30 09:51:21;;;;;;;21.27;6.20;;;12.10;70.60;;;;;;4983238;28;20047;-66
2022/03/30 09:53:48;;;;;;;18.02;5.82;;;12.20;70.70;;;;;;4981819;28;20528;-66
2022/03/30 09:56:14;;;;;;;20.52;7.10;;;12.20;70.60;;;;;;4980105;28;20030;-66
2022/03/30 09:58:41;;;;;;;18.92;6.35;;;12.20;70.70;;;;;;4978277;28;20510;-65
2022/03/30 10:01:08;;;;;;;15.00;5.95;;;12.20;70.90;;;;;;4982129;28;20038;-65
2022/03/30 10:03:41;;;;;;;16.55;5.97;;;12.20;70.80;;;;;;4979970;28;20470;-63
2022/03/30 10:06:09;;;;;;;18.60;5.57;;;12.30;71.10;;;;;;4981092;28;20135;-66
2022/03/30 10:08:35;;;;;;;20.10;6.43;;;12.30;70.50;;;;;;4979200;28;20062;-66
2022/03/30 10:11:00;;;;;;;14.68;6.03;;;12.30;70.70;;;;;;4977891;28;20042;-65
2022/03/30 10:13:26;;;;;;;24.17;5.72;;;12.30;70.50;;;;;;4980028;28;20034;-65
2022/03/30 10:15:52;;;;;;;16.13;6.05;;;12.30;70.20;;;;;;4978419;28;20027;-66
2022/03/30 10:18:22;;;;;;;18.73;6.20;;;12.30;70.40;;;;;;4977775;28;20121;-66
2022/03/30 10:21:01;;;;;;;22.50;5.97;;;12.30;70.50;;;;;;4980033;28;20045;-65
2022/03/30 10:23:30;;;;;;;20.48;6.80;;;12.30;70.90;;;;;;4979755;28;20039;-65
2022/03/30 10:26:25;;;;;;;15.65;5.90;;;12.30;70.60;;;;;;4981445;28;20498;-65
2022/03/30 10:29:07;;;;;;;19.95;6.43;;;12.40;71.90;;;;;;4980515;28;20054;-66
2022/03/30 10:31:34;;;;;;;15.95;6.68;;;12.30;70.90;;;;;;4981845;28;20521;-65
2022/03/30 10:34:26;;;;;;;17.10;6.40;;;12.40;70.00;;;;;;4981114;28;20042;-65
2022/03/30 10:37:09;;;;;;;17.30;6.53;;;12.40;71.10;;;;;;4983013;28;20034;-65
2022/03/30 10:40:03;;;;;;;18.38;6.72;;;12.40;70.90;;;;;;4983588;28;20041;-65
2022/03/30 10:42:54;;;;;;;14.38;5.88;;;12.40;72.00;;;;;;4957019;28;20509;-66
2022/03/30 10:45:29;;;;;;;20.80;6.60;;;12.30;71.40;;;;;;4957934;28;20038;-66
2022/03/30 10:48:19;;;;;;;16.92;6.50;;;12.40;71.30;;;;;;4958421;28;20126;-66
2022/03/30 10:50:56;;;;;;;19.73;6.30;;;12.40;71.40;;;;;;4976205;28;20042;-64
2022/03/30 10:53:34;;;;;;;14.60;6.07;;;12.30;70.90;;;;;;4972214;28;20486;-66
2022/03/30 10:56:08;;;;;;;18.60;6.22;;;12.40;70.90;;;;;;4959640;28;20031;-66
2022/03/30 10:59:00;;;;;;;16.92;6.18;;;12.30;70.80;;;;;;4976415;28;20042;-65
2022/03/30 11:01:31;;;;;;;27.73;6.88;;;12.40;70.60;;;;;;4969947;28;20773;-66
2022/03/30 11:04:18;;;;;;;16.45;6.28;;;12.40;70.60;;;;;;4960519;28;20042;-65
2022/03/30 11:07:06;;;;;;;19.90;7.03;;;12.40;70.70;;;;;;4977812;28;20045;-66
2022/03/30 11:09:33;;;;;;;18.60;6.82;;;12.40;70.70;;;;;;4959704;28;20046;-67
2022/03/30 11:12:00;;;;;;;17.42;6.38;;;12.40;70.60;;;;;;4960465;28;20046;-65
2022/03/30 11:14:26;;;;;;;17.77;6.88;;;12.40;70.60;;;;;;4976599;28;20038;-66
2022/03/30 11:16:56;;;;;;;22.85;6.55;;;12.50;70.70;;;;;;4976311;28;20035;-66
2022/03/30 11:19:29;;;;;;;17.08;6.05;;;12.50;71.20;;;;;;4966538;28;20041;-65
2022/03/30 11:22:09;;;;;;;15.10;6.55;;;12.50;71.00;;;;;;4978785;28;20517;-66
2022/03/30 11:24:36;;;;;;;14.18;6.13;;;12.50;71.80;;;;;;4978841;28;20092;-67
2022/03/30 11:27:01;;;;;;;14.20;6.22;;;12.50;70.70;;;;;;4980500;28;20566;-66
2022/03/30 11:29:49;;;;;;;15.50;6.57;;;12.50;70.80;;;;;;4978292;28;20212;-67
2022/03/30 11:32:26;;;;;;;15.23;6.78;;;12.50;72.00;;;;;;4975730;28;20035;-66
2022/03/30 11:34:52;;;;;;;16.63;6.28;;;12.50;71.80;;;;;;4958122;28;20049;-65
2022/03/30 11:37:33;;;;;;;15.63;6.68;;;12.50;71.00;;;;;;4978704;28;20046;-65
2022/03/30 11:40:05;;;;;;;14.95;6.05;;;12.50;72.30;;;;;;4976427;28;20178;-66
2022/03/30 11:42:31;;;;;;;16.05;6.80;;;12.40;71.80;;;;;;4961096;28;20588;-66
2022/03/30 11:45:13;;;;;;;16.33;6.47;;;12.40;71.40;;;;;;4959498;28;20137;-66
2022/03/30 11:47:49;;;;;;;16.40;6.45;;;12.50;72.30;;;;;;4974707;28;20421;-66
2022/03/30 11:50:17;;;;;;;14.75;7.32;;;12.50;72.70;;;;;;4961028;28;20414;-66
2022/03/30 11:53:00;;;;;;;13.05;6.47;;;12.50;72.30;;;;;;4960849;28;21233;-66
2022/03/30 11:55:28;;;;;;;11.73;5.75;;;12.50;73.00;;;;;;4977540;28;20041;-65
2022/03/30 11:57:53;;;;;;;13.00;6.15;;;12.60;72.00;;;;;;4968245;28;20066;-66
2022/03/30 12:00:23;;;;;;;16.13;6.10;;;12.50;72.00;;;;;;4959178;28;20039;-65
2022/03/30 12:02:50;;;;;;;12.30;5.75;;;12.60;72.20;;;;;;4976461;28;20412;-66
2022/03/30 12:05:16;;;;;;;10.35;5.80;;;12.60;71.80;;;;;;4977780;28;20357;-65
2022/03/30 12:07:42;;;;;;;12.15;6.40;;;12.60;72.00;;;;;;4976477;28;20073;-66
2022/03/30 12:10:14;;;;;;;13.63;6.22;;;12.60;72.00;;;;;;4964314;28;20070;-66
2022/03/30 12:12:42;;;;;;;14.57;6.22;;;12.60;72.70;;;;;;4971219;28;20034;-66
2022/03/30 12:15:11;;;;;;;12.43;6.10;;;12.60;72.10;;;;;;4975405;28;20371;-66
2022/03/30 12:17:37;;;;;;;12.18;5.72;;;12.60;72.00;;;;;;4978560;28;20053;-66
2022/03/30 12:20:06;;;;;;;10.73;5.53;;;12.60;72.00;;;;;;4978283;28;20034;-66
2022/03/30 12:22:33;;;;;;;14.27;5.53;;;12.60;72.30;;;;;;4973537;28;20055;-66
2022/03/30 12:24:59;;;;;;;11.82;5.30;;;12.60;72.20;;;;;;4975839;28;20502;-66
2022/03/30 12:27:26;;;;;;;12.15;5.60;;;12.60;72.00;;;;;;4979322;28;20035;-65
2022/03/30 12:29:57;;;;;;;9.70;5.13;;;12.60;71.90;;;;;;4977986;28;20035;-66
2022/03/30 12:32:24;;;;;;;11.15;5.50;;;12.60;72.40;;;;;;4978550;28;20553;-65
2022/03/30 12:35:15;;;;;;;13.23;5.22;;;12.60;71.90;;;;;;4976396;28;20031;-66
2022/03/30 12:37:45;;;;;;;11.43;5.15;;;12.60;73.00;;;;;;4976621;28;20042;-66
2022/03/30 12:40:18;;;;;;;9.93;5.38;;;12.60;71.80;;;;;;4978243;28;20042;-66
2022/03/30 12:42:44;;;;;;;8.75;5.00;;;12.70;72.50;;;;;;4976488;28;20046;-65
2022/03/30 12:45:14;;;;;;;6.72;4.85;;;12.60;72.10;;;;;;4975847;28;20038;-66
2022/03/30 12:47:59;;;;;;;10.63;5.40;;;12.60;72.20;;;;;;4977725;28;20039;-66